sensor_id;sensor_type;location;lat;lon;timestamp;P1;durP1;ratioP1;P2;durP2;ratioP2
57752;SDS011;43583;53.132;6.574;2023-09-08T01:28:05;9.38;;;7.30;;
57752;SDS011;43583;53.132;6.574;2023-09-08T01:32:13;10.20;;;8.30;;
57752;SDS011;43583;53.132;6.574;2023-09-08T01:51:52;11.20;;;8.27;;
57752;SDS011;43583;53.132;6.574;2023-09-08T04:50:23;11.07;;;6.95;;
57752;SDS011;43583;53.132;6.574;2023-09-08T04:53:02;10.95;;;8.05;;
57752;SDS011;43583;53.132;6.574;2023-09-08T04:56:33;10.55;;;7.32;;
57752;SDS011;43583;53.132;6.574;2023-09-08T05:04:05;9.93;;;6.80;;
57752;SDS011;43583;53.132;6.574;2023-09-08T05:18:55;10.77;;;7.43;;
57752;SDS011;43583;53.132;6.574;2023-09-08T05:26:10;10.20;;;8.15;;
57752;SDS011;43583;53.132;6.574;2023-09-08T05:41:09;9.30;;;8.02;;
57752;SDS011;43583;53.132;6.574;2023-09-08T05:45:22;10.00;;;7.25;;
57752;SDS011;43583;53.132;6.574;2023-09-08T06:24:48;7.20;;;4.90;;
57752;SDS011;43583;53.132;6.574;2023-09-08T06:27:15;5.28;;;4.72;;
57752;SDS011;43583;53.132;6.574;2023-09-08T06:29:41;6.00;;;5.20;;
57752;SDS011;43583;53.132;6.574;2023-09-08T06:32:33;5.07;;;4.57;;
57752;SDS011;43583;53.132;6.574;2023-09-08T06:35:19;6.00;;;4.63;;
57752;SDS011;43583;53.132;6.574;2023-09-08T06:38:23;5.50;;;4.30;;
57752;SDS011;43583;53.132;6.574;2023-09-08T06:41:33;5.75;;;3.65;;
57752;SDS011;43583;53.132;6.574;2023-09-08T06:44:11;4.25;;;3.72;;
57752;SDS011;43583;53.132;6.574;2023-09-08T06:46:42;4.43;;;4.03;;
57752;SDS011;43583;53.132;6.574;2023-09-08T06:49:40;6.78;;;4.45;;
57752;SDS011;43583;53.132;6.574;2023-09-08T06:52:14;4.65;;;3.65;;
57752;SDS011;43583;53.132;6.574;2023-09-08T06:55:11;4.82;;;4.22;;
57752;SDS011;43583;53.132;6.574;2023-09-08T06:57:55;3.75;;;3.40;;
57752;SDS011;43583;53.132;6.574;2023-09-08T07:00:50;7.65;;;3.28;;
57752;SDS011;43583;53.132;6.574;2023-09-08T07:03:33;4.28;;;3.85;;
57752;SDS011;43583;53.132;6.574;2023-09-08T07:06:16;5.30;;;3.65;;
57752;SDS011;43583;53.132;6.574;2023-09-08T07:08:47;4.50;;;3.17;;
57752;SDS011;43583;53.132;6.574;2023-09-08T07:11:23;3.20;;;2.72;;
57752;SDS011;43583;53.132;6.574;2023-09-08T07:14:13;3.63;;;3.33;;
57752;SDS011;43583;53.132;6.574;2023-09-08T07:16:52;3.38;;;2.47;;
57752;SDS011;43583;53.132;6.574;2023-09-08T07:19:52;5.00;;;2.95;;
57752;SDS011;43583;53.132;6.574;2023-09-08T07:22:29;3.22;;;2.53;;
57752;SDS011;43583;53.132;6.574;2023-09-08T07:24:58;4.63;;;2.58;;
57752;SDS011;43583;53.132;6.574;2023-09-08T07:27:41;2.47;;;2.03;;
57752;SDS011;43583;53.132;6.574;2023-09-08T07:31:25;2.70;;;2.28;;
57752;SDS011;43583;53.132;6.574;2023-09-08T07:34:28;3.17;;;2.00;;
57752;SDS011;43583;53.132;6.574;2023-09-08T07:40:34;1.60;;;1.50;;
57752;SDS011;43583;53.132;6.574;2023-09-08T07:43:18;3.25;;;2.20;;
57752;SDS011;43583;53.132;6.574;2023-09-08T07:45:50;2.50;;;1.60;;
57752;SDS011;43583;53.132;6.574;2023-09-08T07:48:30;2.30;;;2.10;;
57752;SDS011;43583;53.132;6.574;2023-09-08T07:51:13;3.13;;;1.38;;
57752;SDS011;43583;53.132;6.574;2023-09-08T07:53:41;6.78;;;1.55;;
57752;SDS011;43583;53.132;6.574;2023-09-08T07:56:53;2.05;;;1.83;;
57752;SDS011;43583;53.132;6.574;2023-09-08T08:00:10;1.83;;;1.55;;
57752;SDS011;43583;53.132;6.574;2023-09-08T08:02:48;2.03;;;1.63;;
57752;SDS011;43583;53.132;6.574;2023-09-08T08:05:37;7.47;;;1.75;;
57752;SDS011;43583;53.132;6.574;2023-09-08T08:08:23;1.70;;;1.25;;
57752;SDS011;43583;53.132;6.574;2023-09-08T08:15:39;2.13;;;1.60;;
57752;SDS011;43583;53.132;6.574;2023-09-08T08:18:30;3.60;;;1.40;;
57752;SDS011;43583;53.132;6.574;2023-09-08T08:25:48;2.05;;;1.42;;
57752;SDS011;43583;53.132;6.574;2023-09-08T08:48:06;2.38;;;1.23;;
57752;SDS011;43583;53.132;6.574;2023-09-08T12:58:41;3.22;;;1.00;;
57752;SDS011;43583;53.132;6.574;2023-09-08T13:04:11;1.40;;;0.93;;
57752;SDS011;43583;53.132;6.574;2023-09-08T13:06:43;2.88;;;0.73;;
57752;SDS011;43583;53.132;6.574;2023-09-08T13:09:15;1.38;;;0.90;;
57752;SDS011;43583;53.132;6.574;2023-09-08T13:11:53;2.60;;;0.70;;
57752;SDS011;43583;53.132;6.574;2023-09-08T13:14:27;2.88;;;1.08;;
57752;SDS011;43583;53.132;6.574;2023-09-08T13:17:20;3.53;;;1.40;;
57752;SDS011;43583;53.132;6.574;2023-09-08T13:20:27;4.28;;;1.10;;
57752;SDS011;43583;53.132;6.574;2023-09-08T13:25:44;2.10;;;1.23;;
57752;SDS011;43583;53.132;6.574;2023-09-08T13:28:49;3.05;;;0.95;;
57752;SDS011;43583;53.132;6.574;2023-09-08T13:32:32;1.90;;;0.93;;
57752;SDS011;43583;53.132;6.574;2023-09-08T13:34:54;2.03;;;0.80;;
57752;SDS011;43583;53.132;6.574;2023-09-08T13:37:45;3.03;;;1.02;;
57752;SDS011;43583;53.132;6.574;2023-09-08T13:43:00;1.80;;;0.70;;
57752;SDS011;43583;53.132;6.574;2023-09-08T13:45:44;6.75;;;1.33;;
57752;SDS011;43583;53.132;6.574;2023-09-08T13:48:10;2.42;;;0.75;;
57752;SDS011;43583;53.132;6.574;2023-09-08T13:50:37;1.30;;;0.73;;
57752;SDS011;43583;53.132;6.574;2023-09-08T13:53:04;1.13;;;0.60;;
57752;SDS011;43583;53.132;6.574;2023-09-08T13:55:30;1.95;;;1.10;;
57752;SDS011;43583;53.132;6.574;2023-09-08T13:57:55;2.50;;;1.13;;
57752;SDS011;43583;53.132;6.574;2023-09-08T14:00:21;1.20;;;0.85;;
57752;SDS011;43583;53.132;6.574;2023-09-08T14:02:47;1.58;;;1.00;;
57752;SDS011;43583;53.132;6.574;2023-09-08T14:05:12;2.00;;;1.00;;
57752;SDS011;43583;53.132;6.574;2023-09-08T14:07:38;2.50;;;0.90;;
57752;SDS011;43583;53.132;6.574;2023-09-08T14:10:04;1.42;;;0.88;;
57752;SDS011;43583;53.132;6.574;2023-09-08T14:12:32;1.17;;;0.80;;
57752;SDS011;43583;53.132;6.574;2023-09-08T14:14:58;3.60;;;1.15;;
57752;SDS011;43583;53.132;6.574;2023-09-08T14:17:24;2.40;;;0.90;;
57752;SDS011;43583;53.132;6.574;2023-09-08T14:19:50;1.75;;;0.90;;
57752;SDS011;43583;53.132;6.574;2023-09-08T14:22:15;2.63;;;0.70;;
57752;SDS011;43583;53.132;6.574;2023-09-08T14:24:41;2.25;;;1.00;;
57752;SDS011;43583;53.132;6.574;2023-09-08T14:27:06;2.35;;;1.00;;
57752;SDS011;43583;53.132;6.574;2023-09-08T14:29:34;2.38;;;1.17;;
57752;SDS011;43583;53.132;6.574;2023-09-08T14:32:00;3.72;;;1.20;;
57752;SDS011;43583;53.132;6.574;2023-09-08T14:34:25;1.98;;;0.98;;
57752;SDS011;43583;53.132;6.574;2023-09-08T14:36:51;1.80;;;1.05;;
57752;SDS011;43583;53.132;6.574;2023-09-08T14:39:17;1.50;;;1.00;;
57752;SDS011;43583;53.132;6.574;2023-09-08T14:41:44;6.05;;;1.20;;
57752;SDS011;43583;53.132;6.574;2023-09-08T14:44:10;2.53;;;1.10;;
57752;SDS011;43583;53.132;6.574;2023-09-08T14:46:36;4.82;;;1.00;;
57752;SDS011;43583;53.132;6.574;2023-09-08T14:49:01;2.00;;;0.80;;
57752;SDS011;43583;53.132;6.574;2023-09-08T14:51:27;2.67;;;1.20;;
57752;SDS011;43583;53.132;6.574;2023-09-08T14:53:53;1.55;;;1.23;;
57752;SDS011;43583;53.132;6.574;2023-09-08T14:56:19;2.80;;;1.40;;
57752;SDS011;43583;53.132;6.574;2023-09-08T14:58:44;1.42;;;1.10;;
57752;SDS011;43583;53.132;6.574;2023-09-08T15:01:10;2.15;;;0.95;;
57752;SDS011;43583;53.132;6.574;2023-09-08T15:03:38;1.40;;;1.00;;
57752;SDS011;43583;53.132;6.574;2023-09-08T15:06:04;2.17;;;1.35;;
57752;SDS011;43583;53.132;6.574;2023-09-08T15:08:30;1.38;;;0.77;;
57752;SDS011;43583;53.132;6.574;2023-09-08T15:10:56;3.85;;;1.23;;
57752;SDS011;43583;53.132;6.574;2023-09-08T15:13:21;2.17;;;1.10;;
57752;SDS011;43583;53.132;6.574;2023-09-08T15:15:47;2.20;;;0.80;;
57752;SDS011;43583;53.132;6.574;2023-09-08T15:18:13;1.88;;;0.75;;
57752;SDS011;43583;53.132;6.574;2023-09-08T15:20:38;1.50;;;0.73;;
57752;SDS011;43583;53.132;6.574;2023-09-08T15:23:05;1.58;;;0.98;;
57752;SDS011;43583;53.132;6.574;2023-09-08T15:25:31;1.73;;;1.00;;
57752;SDS011;43583;53.132;6.574;2023-09-08T15:27:57;2.85;;;1.23;;
57752;SDS011;43583;53.132;6.574;2023-09-08T15:30:22;4.50;;;1.00;;
57752;SDS011;43583;53.132;6.574;2023-09-08T15:32:48;1.92;;;0.80;;
57752;SDS011;43583;53.132;6.574;2023-09-08T15:35:13;1.58;;;1.35;;
57752;SDS011;43583;53.132;6.574;2023-09-08T15:37:39;1.63;;;1.17;;
57752;SDS011;43583;53.132;6.574;2023-09-08T15:40:04;2.33;;;0.95;;
57752;SDS011;43583;53.132;6.574;2023-09-08T15:42:31;1.85;;;0.93;;
57752;SDS011;43583;53.132;6.574;2023-09-08T15:44:56;2.67;;;0.90;;
57752;SDS011;43583;53.132;6.574;2023-09-08T15:47:22;2.67;;;1.17;;
57752;SDS011;43583;53.132;6.574;2023-09-08T15:49:47;4.15;;;1.50;;
57752;SDS011;43583;53.132;6.574;2023-09-08T15:52:13;1.65;;;1.20;;
57752;SDS011;43583;53.132;6.574;2023-09-08T15:54:39;4.30;;;0.98;;
57752;SDS011;43583;53.132;6.574;2023-09-08T15:57:05;2.00;;;0.80;;
57752;SDS011;43583;53.132;6.574;2023-09-08T15:59:32;2.78;;;1.00;;
57752;SDS011;43583;53.132;6.574;2023-09-08T16:01:58;2.13;;;1.27;;
57752;SDS011;43583;53.132;6.574;2023-09-08T16:04:23;2.25;;;1.20;;
57752;SDS011;43583;53.132;6.574;2023-09-08T16:06:49;5.00;;;1.25;;
57752;SDS011;43583;53.132;6.574;2023-09-08T16:09:15;1.33;;;0.95;;
57752;SDS011;43583;53.132;6.574;2023-09-08T16:11:41;2.08;;;0.95;;
57752;SDS011;43583;53.132;6.574;2023-09-08T16:14:07;1.65;;;1.00;;
57752;SDS011;43583;53.132;6.574;2023-09-08T16:16:33;2.30;;;1.20;;
57752;SDS011;43583;53.132;6.574;2023-09-08T16:19:00;2.15;;;1.13;;
57752;SDS011;43583;53.132;6.574;2023-09-08T16:21:26;2.45;;;1.05;;
57752;SDS011;43583;53.132;6.574;2023-09-08T16:23:52;2.63;;;0.73;;
57752;SDS011;43583;53.132;6.574;2023-09-08T16:26:17;2.00;;;1.35;;
57752;SDS011;43583;53.132;6.574;2023-09-08T16:28:43;2.78;;;1.45;;
57752;SDS011;43583;53.132;6.574;2023-09-08T16:31:08;2.60;;;1.42;;
57752;SDS011;43583;53.132;6.574;2023-09-08T16:33:34;2.78;;;1.35;;
57752;SDS011;43583;53.132;6.574;2023-09-08T16:36:00;2.00;;;0.85;;
57752;SDS011;43583;53.132;6.574;2023-09-08T16:38:25;1.70;;;1.10;;
57752;SDS011;43583;53.132;6.574;2023-09-08T16:40:51;1.70;;;1.15;;
57752;SDS011;43583;53.132;6.574;2023-09-08T16:43:17;4.30;;;0.95;;
57752;SDS011;43583;53.132;6.574;2023-09-08T16:45:42;1.48;;;1.13;;
57752;SDS011;43583;53.132;6.574;2023-09-08T16:48:08;2.08;;;1.08;;
57752;SDS011;43583;53.132;6.574;2023-09-08T16:50:33;1.60;;;1.20;;
57752;SDS011;43583;53.132;6.574;2023-09-08T16:52:59;2.80;;;1.13;;
57752;SDS011;43583;53.132;6.574;2023-09-08T16:55:24;2.78;;;0.85;;
57752;SDS011;43583;53.132;6.574;2023-09-08T16:57:50;1.42;;;0.98;;
57752;SDS011;43583;53.132;6.574;2023-09-08T17:00:16;1.50;;;1.30;;
57752;SDS011;43583;53.132;6.574;2023-09-08T17:02:42;1.58;;;1.25;;
57752;SDS011;43583;53.132;6.574;2023-09-08T17:05:07;3.00;;;1.20;;
57752;SDS011;43583;53.132;6.574;2023-09-08T17:07:33;2.42;;;1.15;;
57752;SDS011;43583;53.132;6.574;2023-09-08T17:09:59;2.28;;;1.15;;
57752;SDS011;43583;53.132;6.574;2023-09-08T17:12:28;2.47;;;1.65;;
57752;SDS011;43583;53.132;6.574;2023-09-08T17:14:54;3.45;;;1.60;;
57752;SDS011;43583;53.132;6.574;2023-09-08T17:17:20;3.67;;;1.67;;
57752;SDS011;43583;53.132;6.574;2023-09-08T17:19:45;1.33;;;1.00;;
57752;SDS011;43583;53.132;6.574;2023-09-08T17:22:11;1.90;;;1.35;;
57752;SDS011;43583;53.132;6.574;2023-09-08T17:24:36;2.35;;;1.45;;
57752;SDS011;43583;53.132;6.574;2023-09-08T17:27:02;2.75;;;1.17;;
57752;SDS011;43583;53.132;6.574;2023-09-08T17:29:28;2.58;;;1.60;;
57752;SDS011;43583;53.132;6.574;2023-09-08T17:31:54;2.40;;;1.60;;
57752;SDS011;43583;53.132;6.574;2023-09-08T17:34:20;3.53;;;1.90;;
57752;SDS011;43583;53.132;6.574;2023-09-08T17:36:46;2.45;;;1.70;;
57752;SDS011;43583;53.132;6.574;2023-09-08T17:39:16;2.17;;;1.73;;
57752;SDS011;43583;53.132;6.574;2023-09-08T17:41:42;1.92;;;1.40;;
57752;SDS011;43583;53.132;6.574;2023-09-08T17:44:07;2.55;;;1.83;;
57752;SDS011;43583;53.132;6.574;2023-09-08T17:46:33;3.03;;;1.98;;
57752;SDS011;43583;53.132;6.574;2023-09-08T17:48:59;2.80;;;1.45;;
57752;SDS011;43583;53.132;6.574;2023-09-08T17:51:24;1.70;;;1.20;;
57752;SDS011;43583;53.132;6.574;2023-09-08T17:53:50;3.55;;;1.88;;
57752;SDS011;43583;53.132;6.574;2023-09-08T17:56:15;2.40;;;1.70;;
57752;SDS011;43583;53.132;6.574;2023-09-08T17:58:41;3.00;;;2.08;;
57752;SDS011;43583;53.132;6.574;2023-09-08T18:01:06;3.03;;;2.13;;
57752;SDS011;43583;53.132;6.574;2023-09-08T18:03:32;1.85;;;1.63;;
57752;SDS011;43583;53.132;6.574;2023-09-08T18:05:57;2.30;;;1.98;;
57752;SDS011;43583;53.132;6.574;2023-09-08T18:08:23;3.13;;;1.92;;
57752;SDS011;43583;53.132;6.574;2023-09-08T18:10:49;3.88;;;2.63;;
57752;SDS011;43583;53.132;6.574;2023-09-08T18:13:14;2.90;;;2.10;;
57752;SDS011;43583;53.132;6.574;2023-09-08T18:15:40;3.05;;;2.20;;
57752;SDS011;43583;53.132;6.574;2023-09-08T18:18:05;2.38;;;1.60;;
57752;SDS011;43583;53.132;6.574;2023-09-08T18:20:33;2.63;;;2.42;;
57752;SDS011;43583;53.132;6.574;2023-09-08T18:22:59;2.10;;;1.88;;
57752;SDS011;43583;53.132;6.574;2023-09-08T18:25:30;3.40;;;2.47;;
57752;SDS011;43583;53.132;6.574;2023-09-08T18:27:55;7.50;;;2.72;;
57752;SDS011;43583;53.132;6.574;2023-09-08T18:30:23;3.38;;;2.28;;
57752;SDS011;43583;53.132;6.574;2023-09-08T18:32:49;3.30;;;2.58;;
57752;SDS011;43583;53.132;6.574;2023-09-08T18:35:15;3.25;;;2.50;;
57752;SDS011;43583;53.132;6.574;2023-09-08T18:37:40;2.60;;;2.40;;
57752;SDS011;43583;53.132;6.574;2023-09-08T18:40:06;2.40;;;2.10;;
57752;SDS011;43583;53.132;6.574;2023-09-08T18:42:32;4.85;;;2.20;;
57752;SDS011;43583;53.132;6.574;2023-09-08T18:44:58;3.35;;;2.78;;
57752;SDS011;43583;53.132;6.574;2023-09-08T18:47:23;2.60;;;2.30;;
57752;SDS011;43583;53.132;6.574;2023-09-08T18:49:49;2.95;;;2.25;;
57752;SDS011;43583;53.132;6.574;2023-09-08T18:52:14;2.78;;;2.25;;
57752;SDS011;43583;53.132;6.574;2023-09-08T18:54:40;5.25;;;2.90;;
57752;SDS011;43583;53.132;6.574;2023-09-08T18:57:06;2.85;;;2.45;;
57752;SDS011;43583;53.132;6.574;2023-09-08T18:59:31;3.00;;;2.40;;
57752;SDS011;43583;53.132;6.574;2023-09-08T19:01:57;3.38;;;2.28;;
57752;SDS011;43583;53.132;6.574;2023-09-08T19:04:22;2.63;;;2.30;;
57752;SDS011;43583;53.132;6.574;2023-09-08T19:06:48;3.53;;;2.25;;
57752;SDS011;43583;53.132;6.574;2023-09-08T19:09:14;2.38;;;2.10;;
57752;SDS011;43583;53.132;6.574;2023-09-08T19:11:39;3.75;;;2.30;;
57752;SDS011;43583;53.132;6.574;2023-09-08T19:14:05;3.63;;;2.88;;
57752;SDS011;43583;53.132;6.574;2023-09-08T19:16:30;3.53;;;2.70;;
57752;SDS011;43583;53.132;6.574;2023-09-08T19:18:57;2.83;;;2.30;;
57752;SDS011;43583;53.132;6.574;2023-09-08T19:21:23;2.83;;;2.22;;
57752;SDS011;43583;53.132;6.574;2023-09-08T19:23:49;2.40;;;2.20;;
57752;SDS011;43583;53.132;6.574;2023-09-08T19:26:15;3.13;;;2.83;;
57752;SDS011;43583;53.132;6.574;2023-09-08T19:28:40;2.65;;;2.45;;
57752;SDS011;43583;53.132;6.574;2023-09-08T19:31:06;3.13;;;2.75;;
57752;SDS011;43583;53.132;6.574;2023-09-08T19:33:31;2.55;;;2.20;;
57752;SDS011;43583;53.132;6.574;2023-09-08T19:35:59;2.42;;;2.10;;
57752;SDS011;43583;53.132;6.574;2023-09-08T19:38:25;3.10;;;2.22;;
57752;SDS011;43583;53.132;6.574;2023-09-08T19:40:59;3.00;;;2.25;;
57752;SDS011;43583;53.132;6.574;2023-09-08T19:43:27;2.78;;;2.50;;
57752;SDS011;43583;53.132;6.574;2023-09-08T19:45:53;3.47;;;2.65;;
57752;SDS011;43583;53.132;6.574;2023-09-08T19:48:25;3.10;;;2.55;;
57752;SDS011;43583;53.132;6.574;2023-09-08T19:50:50;3.10;;;2.80;;
57752;SDS011;43583;53.132;6.574;2023-09-08T19:53:16;3.72;;;2.88;;
57752;SDS011;43583;53.132;6.574;2023-09-08T19:55:44;4.38;;;3.03;;
57752;SDS011;43583;53.132;6.574;2023-09-08T19:58:11;2.83;;;2.50;;
57752;SDS011;43583;53.132;6.574;2023-09-08T20:00:41;3.53;;;3.08;;
57752;SDS011;43583;53.132;6.574;2023-09-08T20:03:08;6.97;;;2.92;;
57752;SDS011;43583;53.132;6.574;2023-09-08T20:05:34;4.45;;;2.75;;
57752;SDS011;43583;53.132;6.574;2023-09-08T20:08:01;6.68;;;3.13;;
57752;SDS011;43583;53.132;6.574;2023-09-08T20:10:27;2.90;;;2.58;;
57752;SDS011;43583;53.132;6.574;2023-09-08T20:12:54;4.60;;;3.35;;
57752;SDS011;43583;53.132;6.574;2023-09-08T20:15:30;4.53;;;2.38;;
57752;SDS011;43583;53.132;6.574;2023-09-08T20:17:56;4.30;;;2.33;;
57752;SDS011;43583;53.132;6.574;2023-09-08T20:20:23;3.72;;;2.50;;
57752;SDS011;43583;53.132;6.574;2023-09-08T20:22:51;4.15;;;3.17;;
57752;SDS011;43583;53.132;6.574;2023-09-08T20:25:20;4.30;;;3.13;;
57752;SDS011;43583;53.132;6.574;2023-09-08T20:27:46;6.55;;;2.95;;
57752;SDS011;43583;53.132;6.574;2023-09-08T20:30:16;8.82;;;4.00;;
57752;SDS011;43583;53.132;6.574;2023-09-08T20:32:42;6.75;;;4.28;;
57752;SDS011;43583;53.132;6.574;2023-09-08T20:35:13;4.97;;;3.22;;
57752;SDS011;43583;53.132;6.574;2023-09-08T20:37:40;6.05;;;3.05;;
57752;SDS011;43583;53.132;6.574;2023-09-08T20:40:16;4.72;;;3.83;;
57752;SDS011;43583;53.132;6.574;2023-09-08T20:42:43;4.50;;;3.58;;
57752;SDS011;43583;53.132;6.574;2023-09-08T20:45:10;4.82;;;3.20;;
57752;SDS011;43583;53.132;6.574;2023-09-08T20:47:43;6.13;;;3.83;;
57752;SDS011;43583;53.132;6.574;2023-09-08T20:50:09;4.28;;;3.88;;
57752;SDS011;43583;53.132;6.574;2023-09-08T20:52:37;5.82;;;4.30;;
57752;SDS011;43583;53.132;6.574;2023-09-08T20:55:08;8.35;;;5.70;;
57752;SDS011;43583;53.132;6.574;2023-09-08T20:57:35;7.18;;;5.00;;
57752;SDS011;43583;53.132;6.574;2023-09-08T21:00:07;6.57;;;5.00;;
57752;SDS011;43583;53.132;6.574;2023-09-08T21:02:35;6.00;;;4.65;;
57752;SDS011;43583;53.132;6.574;2023-09-08T21:05:06;5.15;;;3.92;;
57752;SDS011;43583;53.132;6.574;2023-09-08T21:07:47;5.82;;;4.45;;
57752;SDS011;43583;53.132;6.574;2023-09-08T21:10:17;4.80;;;4.22;;
57752;SDS011;43583;53.132;6.574;2023-09-08T21:12:48;7.72;;;4.38;;
57752;SDS011;43583;53.132;6.574;2023-09-08T21:15:18;5.53;;;3.92;;
57752;SDS011;43583;53.132;6.574;2023-09-08T21:17:45;5.15;;;4.18;;
57752;SDS011;43583;53.132;6.574;2023-09-08T21:20:12;4.95;;;4.30;;
57752;SDS011;43583;53.132;6.574;2023-09-08T21:22:45;5.97;;;5.03;;
57752;SDS011;43583;53.132;6.574;2023-09-08T21:25:14;7.13;;;5.93;;
57752;SDS011;43583;53.132;6.574;2023-09-08T21:27:43;4.28;;;3.70;;
57752;SDS011;43583;53.132;6.574;2023-09-08T21:30:09;7.05;;;5.05;;
57752;SDS011;43583;53.132;6.574;2023-09-08T21:32:37;5.05;;;4.43;;
57752;SDS011;43583;53.132;6.574;2023-09-08T21:35:04;5.53;;;3.88;;
57752;SDS011;43583;53.132;6.574;2023-09-08T21:37:30;4.70;;;4.28;;
57752;SDS011;43583;53.132;6.574;2023-09-08T21:39:55;6.80;;;4.88;;
57752;SDS011;43583;53.132;6.574;2023-09-08T21:42:21;4.90;;;4.35;;
57752;SDS011;43583;53.132;6.574;2023-09-08T21:44:47;6.05;;;5.45;;
57752;SDS011;43583;53.132;6.574;2023-09-08T21:47:13;7.00;;;4.28;;
57752;SDS011;43583;53.132;6.574;2023-09-08T21:49:40;5.32;;;4.82;;
57752;SDS011;43583;53.132;6.574;2023-09-08T21:52:06;6.20;;;4.78;;
57752;SDS011;43583;53.132;6.574;2023-09-08T21:54:32;7.20;;;4.82;;
57752;SDS011;43583;53.132;6.574;2023-09-08T21:56:57;6.28;;;4.78;;
57752;SDS011;43583;53.132;6.574;2023-09-08T21:59:23;5.88;;;5.28;;
57752;SDS011;43583;53.132;6.574;2023-09-08T22:01:49;5.57;;;5.05;;
57752;SDS011;43583;53.132;6.574;2023-09-08T22:04:14;5.82;;;5.30;;
57752;SDS011;43583;53.132;6.574;2023-09-08T22:06:40;5.95;;;5.28;;
57752;SDS011;43583;53.132;6.574;2023-09-08T22:09:06;6.10;;;4.47;;
57752;SDS011;43583;53.132;6.574;2023-09-08T22:11:32;4.68;;;4.28;;
57752;SDS011;43583;53.132;6.574;2023-09-08T22:13:57;3.80;;;3.42;;
57752;SDS011;43583;53.132;6.574;2023-09-08T22:16:23;4.97;;;4.47;;
57752;SDS011;43583;53.132;6.574;2023-09-08T22:18:49;3.72;;;3.33;;
57752;SDS011;43583;53.132;6.574;2023-09-08T22:21:15;6.22;;;4.28;;
57752;SDS011;43583;53.132;6.574;2023-09-08T22:23:41;4.50;;;3.80;;
57752;SDS011;43583;53.132;6.574;2023-09-08T22:26:13;5.80;;;5.20;;
57752;SDS011;43583;53.132;6.574;2023-09-08T22:28:40;6.25;;;4.13;;
57752;SDS011;43583;53.132;6.574;2023-09-08T22:31:06;4.78;;;4.35;;
57752;SDS011;43583;53.132;6.574;2023-09-08T22:33:32;6.20;;;5.22;;
57752;SDS011;43583;53.132;6.574;2023-09-08T22:35:58;6.63;;;5.28;;
57752;SDS011;43583;53.132;6.574;2023-09-08T22:38:25;5.18;;;4.68;;
57752;SDS011;43583;53.132;6.574;2023-09-08T22:40:51;6.35;;;4.28;;
57752;SDS011;43583;53.132;6.574;2023-09-08T22:43:16;5.55;;;5.00;;
57752;SDS011;43583;53.132;6.574;2023-09-08T22:45:42;6.05;;;5.38;;
57752;SDS011;43583;53.132;6.574;2023-09-08T22:48:08;4.68;;;4.28;;
57752;SDS011;43583;53.132;6.574;2023-09-08T22:50:34;6.78;;;4.25;;
57752;SDS011;43583;53.132;6.574;2023-09-08T22:53:02;5.55;;;4.97;;
57752;SDS011;43583;53.132;6.574;2023-09-08T22:55:28;4.82;;;4.25;;
57752;SDS011;43583;53.132;6.574;2023-09-08T22:57:56;4.50;;;4.10;;
57752;SDS011;43583;53.132;6.574;2023-09-08T23:00:22;5.30;;;4.07;;
57752;SDS011;43583;53.132;6.574;2023-09-08T23:02:48;4.57;;;3.97;;
57752;SDS011;43583;53.132;6.574;2023-09-08T23:05:13;5.15;;;4.50;;
57752;SDS011;43583;53.132;6.574;2023-09-08T23:07:42;4.43;;;4.03;;
57752;SDS011;43583;53.132;6.574;2023-09-08T23:10:09;5.63;;;4.72;;
57752;SDS011;43583;53.132;6.574;2023-09-08T23:12:38;5.22;;;4.55;;
57752;SDS011;43583;53.132;6.574;2023-09-08T23:15:04;6.80;;;4.60;;
57752;SDS011;43583;53.132;6.574;2023-09-08T23:17:31;6.00;;;5.15;;
57752;SDS011;43583;53.132;6.574;2023-09-08T23:19:56;6.10;;;5.20;;
57752;SDS011;43583;53.132;6.574;2023-09-08T23:22:23;5.60;;;4.95;;
57752;SDS011;43583;53.132;6.574;2023-09-08T23:24:49;7.22;;;5.10;;
57752;SDS011;43583;53.132;6.574;2023-09-08T23:27:15;6.35;;;5.53;;
57752;SDS011;43583;53.132;6.574;2023-09-08T23:29:43;6.43;;;4.35;;
57752;SDS011;43583;53.132;6.574;2023-09-08T23:32:09;5.22;;;4.72;;
57752;SDS011;43583;53.132;6.574;2023-09-08T23:34:36;5.95;;;5.15;;
57752;SDS011;43583;53.132;6.574;2023-09-08T23:37:02;5.70;;;5.00;;
57752;SDS011;43583;53.132;6.574;2023-09-08T23:39:30;5.57;;;5.07;;
57752;SDS011;43583;53.132;6.574;2023-09-08T23:41:56;4.63;;;4.22;;
57752;SDS011;43583;53.132;6.574;2023-09-08T23:44:22;5.47;;;4.55;;
57752;SDS011;43583;53.132;6.574;2023-09-08T23:46:50;5.07;;;4.25;;
57752;SDS011;43583;53.132;6.574;2023-09-08T23:49:16;5.38;;;4.82;;
57752;SDS011;43583;53.132;6.574;2023-09-08T23:51:42;6.35;;;4.32;;
57752;SDS011;43583;53.132;6.574;2023-09-08T23:54:07;6.07;;;4.20;;
57752;SDS011;43583;53.132;6.574;2023-09-08T23:56:33;6.25;;;4.88;;
57752;SDS011;43583;53.132;6.574;2023-09-08T23:59:00;6.75;;;4.75;;
